Nearby METAR Reports

 

EGNM - Leeds And Bradford, United Kingdom
Distance from station: N 11mi, 18km
Updated: 23/04/2019 17:20
Clear
Clear
 Wind from E
Wind: E 12 mph , 19 km/h
Temperature: 13°C
Dew Point: 6°C
Humidity: 63%
Barometer: 999 hPa
Summary: Clear
Visibility: greater than 7 miles , 10 km
2019/04/23 17:20 EGNM 231720Z 08010KT 010V160 CAVOK 13/06 Q0999
EGXU - Linton-On-Ouse, United Kingdom
Distance from station: NNE 28mi, 45km
Updated: 23/04/2019 16:50
Clear
Clear
 Wind from ENE
Wind: ENE 13 mph , 20 km/h
Temperature: 14°C
Dew Point: 7°C
Humidity: 63%
Barometer: 999 hPa
Clouds: Clear
Visibility: 6 miles , 10 km
2019/04/23 16:50 EGXU 231650Z AUTO 07011KT 9999 // NCD 14/07 Q0999
 
EGCN - Doncaster Sheffield, United Kingdom
Distance from station: ESE 30mi, 45km
Updated: 23/04/2019 17:50
Clear
Clear
 Wind from ENE
Wind: ENE 9 mph , 15 km/h
Temperature: 15°C
Dew Point: 7°C
Humidity: 59%
Barometer: 999 hPa
Summary: Clear
Visibility: greater than 7 miles , 10 km
2019/04/23 17:50 EGCN 231750Z 07008KT CAVOK 15/07 Q0999
EGXZ - Topcliffe RAF, United Kingdom
Distance from station: NNE 36mi, 57km
Updated: 23/04/2019 16:50
Partly cloudy
Partly cloudy
 Wind from E
Wind: E 12 mph , 19 km/h
Temperature: 14°C
Dew Point: 7°C
Humidity: 63%
Barometer: 1000 hPa
Clouds: Partly cloudy
Visibility: 6 miles , 10 km
Cloud details: Partly cloudy 6401 m
2019/04/23 16:50 EGXZ 231650Z AUTO 09010KT 9999 SCT210/// 14/07 Q1000
 
EGCC - Manchester Intl, United Kingdom
Distance from station: SW 36mi, 58km
Updated: 23/04/2019 17:50
Clear
Clear
 Wind from E
Wind: E 6 mph , 9 km/h
Temperature: 17°C
Dew Point: 7°C
Humidity: 52%
Barometer: 997 hPa
Clouds: Clear
Visibility: 6 miles , 10 km
2019/04/23 17:50 EGCC 231750Z AUTO 09005KT 050V150 9999 NCD 17/07 Q0997 NOSIG
EGXE - Leeming RAF, United Kingdom
Distance from station: N 40mi, 65km
Updated: 23/04/2019 16:50
Clear
Clear
 Wind from ESE
Wind: ESE 10 mph , 17 km/h
Temperature: 16°C
Dew Point: 5°C
Humidity: 48%
Barometer: 999 hPa
Summary: Clear
Visibility: greater than 7 miles , 10 km
2019/04/23 16:50 EGXE 231650Z 12009KT CAVOK 16/05 Q0999 BLU NOSIG